Time;durP1;ratioP1;P1;durP2;ratioP2;P2;SDS_P1;SDS_P2;PMS_P1;PMS_P2;Temp;Humidity;BMP_temperature;BMP_pressure;BME280_temperature;BME280_humidity;BME280_pressure;Samples;Min_cycle;Max_cycle;Signal;HPM_P1;HPM_P2
2021/03/25 00:02:02;;;;;;;7.10;1.63;;;;;;;9.15;72.24;100967.78;5058259;28;20009;-94
2021/03/25 00:04:27;;;;;;;11.15;2.05;;;;;;;9.18;72.24;100965.81;5041559;28;20303;-94
2021/03/25 00:06:56;;;;;;;15.55;2.40;;;;;;;9.23;70.79;100960.34;5033123;28;20176;-94
2021/03/25 00:09:31;;;;;;;9.20;1.70;;;;;;;9.23;71.25;100969.06;5034239;28;20029;-94
2021/03/25 00:11:57;;;;;;;5.10;1.58;;;;;;;9.11;71.39;100970.56;5033458;28;20037;-94
2021/03/25 00:14:23;;;;;;;9.55;1.48;;;;;;;9.05;70.91;100962.19;5033377;28;20030;-94
2021/03/25 00:16:49;;;;;;;7.78;2.05;;;;;;;8.96;70.94;100954.78;5032896;28;20398;-94
2021/03/25 00:19:15;;;;;;;10.23;1.88;;;;;;;9.04;70.61;100961.31;5033204;28;20028;-95
2021/03/25 00:21:40;;;;;;;8.07;1.48;;;;;;;9.06;70.21;100961.25;5032799;28;20025;-94
2021/03/25 00:24:10;;;;;;;9.75;2.85;;;;;;;9.10;70.15;100968.00;5032951;28;20152;-93
2021/03/25 00:26:35;;;;;;;14.50;2.10;;;;;;;9.09;70.40;100950.63;5033359;28;20033;-93
2021/03/25 00:29:01;;;;;;;7.05;1.42;;;;;;;8.80;72.06;100947.72;5032192;28;20112;-93
2021/03/25 00:31:26;;;;;;;6.97;1.88;;;;;;;8.89;71.56;100964.75;5032880;28;20018;-93
2021/03/25 00:33:52;;;;;;;15.88;1.92;;;;;;;8.53;72.82;100942.13;5032544;28;20053;-94
2021/03/25 00:36:17;;;;;;;8.57;2.13;;;;;;;8.82;71.59;100953.75;5032649;28;20443;-94
2021/03/25 00:38:43;;;;;;;8.70;1.70;;;;;;;8.82;71.55;100953.75;5032067;28;20026;-94
2021/03/25 00:41:08;;;;;;;8.55;2.20;;;;;;;8.72;72.07;100940.28;5032566;28;20024;-93
2021/03/25 00:43:34;;;;;;;10.88;1.83;;;;;;;8.73;71.79;100939.34;5032079;28;20479;-94
2021/03/25 00:45:59;;;;;;;10.40;1.95;;;;;;;8.66;71.79;100940.59;5032520;28;20021;-94
2021/03/25 00:48:25;;;;;;;9.32;1.95;;;;;;;8.73;72.19;100930.66;5032515;28;20495;-93
2021/03/25 00:50:54;;;;;;;8.05;1.52;;;;;;;8.70;72.20;100934.28;5033526;28;20029;-93
2021/03/25 00:53:26;;;;;;;9.38;1.92;;;;;;;8.58;71.49;100932.28;5032266;28;20132;-94
2021/03/25 00:55:52;;;;;;;6.70;1.90;;;;;;;8.62;72.13;100939.06;5031836;28;20499;-94
2021/03/25 00:58:17;;;;;;;10.40;2.00;;;;;;;8.56;72.97;100941.16;5032716;28;20029;-94
2021/03/25 01:00:45;;;;;;;11.60;1.67;;;;;;;8.57;73.10;100937.59;5032234;28;20029;-95
2021/03/25 01:03:12;;;;;;;14.60;2.38;;;;;;;8.53;71.53;100936.91;5032121;28;20025;-94
2021/03/25 01:05:38;;;;;;;7.88;2.10;;;;;;;8.52;71.54;100930.81;5031903;28;20025;-95
2021/03/25 01:08:04;;;;;;;9.88;2.13;;;;;;;8.53;72.79;100929.03;5031746;28;20036;-94
2021/03/25 01:10:40;;;;;;;7.20;1.70;;;;;;;8.67;72.72;100933.59;5031953;28;20025;-94
2021/03/25 01:13:09;;;;;;;6.82;1.42;;;;;;;8.55;72.98;100935.09;5031740;28;20033;-94
2021/03/25 01:15:34;;;;;;;11.10;2.10;;;;;;;8.46;72.70;100935.53;5031976;28;20029;-94
2021/03/25 01:18:00;;;;;;;12.73;1.90;;;;;;;8.41;74.19;100919.19;5032060;28;20044;-94
2021/03/25 01:20:28;;;;;;;10.05;1.95;;;;;;;8.65;73.92;100925.81;5032366;28;20029;-94
2021/03/25 01:22:53;;;;;;;10.70;1.83;;;;;;;8.65;73.37;100910.13;5032086;28;20032;-96
2021/03/25 01:25:20;;;;;;;15.02;3.10;;;;;;;8.50;75.26;100909.13;5031824;28;20022;-93
2021/03/25 01:27:46;;;;;;;10.13;1.58;;;;;;;8.70;74.15;100905.47;5032057;28;20025;-94
2021/03/25 01:30:13;;;;;;;11.02;1.58;;;;;;;8.89;73.56;100912.38;5031587;28;20478;-94
2021/03/25 01:32:38;;;;;;;15.35;2.13;;;;;;;8.84;72.59;100904.75;5031146;28;20029;-94
2021/03/25 01:35:09;;;;;;;8.38;2.85;;;;;;;8.87;72.40;100915.06;5031362;28;20025;-94
2021/03/25 01:37:37;;;;;;;6.43;1.30;;;;;;;8.82;73.02;100906.59;5031404;28;20116;-94
2021/03/25 01:40:07;;;;;;;7.10;1.80;;;;;;;8.80;72.22;100911.06;5031606;28;20484;-94
2021/03/25 01:42:35;;;;;;;5.85;1.40;;;;;;;8.60;73.09;100906.88;5031233;28;20047;-94
2021/03/25 01:45:01;;;;;;;6.53;1.67;;;;;;;8.62;72.68;100894.56;5031254;28;20064;-94
2021/03/25 01:47:27;;;;;;;7.60;1.50;;;;;;;8.59;73.33;100899.97;5031170;28;20076;-94
2021/03/25 01:49:52;;;;;;;10.45;1.88;;;;;;;8.53;73.94;100885.44;5031298;28;20057;-94
2021/03/25 01:52:32;;;;;;;11.98;2.25;;;;;;;8.62;74.23;100902.41;5031460;28;20438;-96
2021/03/25 01:55:07;;;;;;;9.85;1.58;;;;;;;8.75;73.12;100894.78;5031618;28;20502;-96
2021/03/25 01:57:43;;;;;;;14.38;1.85;;;;;;;8.79;72.57;100887.59;5034181;28;20029;-94
2021/03/25 02:00:17;;;;;;;9.38;1.55;;;;;;;8.76;73.16;100887.75;5031780;28;20030;-94
2021/03/25 02:02:55;;;;;;;8.05;1.73;;;;;;;8.74;73.07;100878.19;5015233;28;20116;-95
2021/03/25 02:05:30;;;;;;;5.10;1.60;;;;;;;8.61;72.05;100868.44;5015329;28;20038;-94
2021/03/25 02:08:01;;;;;;;10.18;1.92;;;;;;;8.61;72.33;100877.19;5015369;28;20022;-93
2021/03/25 02:11:01;;;;;;;10.13;2.17;;;;;;;8.51;72.30;100870.69;5015153;28;20399;-93
2021/03/25 02:13:38;;;;;;;10.52;2.45;;;;;;;8.47;71.66;100875.28;5006237;28;20061;-95
2021/03/25 02:16:11;;;;;;;7.75;1.75;;;;;;;8.35;71.99;100865.38;5034969;28;20041;-94
2021/03/25 02:18:45;;;;;;;10.85;2.20;;;;;;;8.34;72.90;100875.00;5034378;28;20021;-94
2021/03/25 02:21:13;;;;;;;6.13;1.52;;;;;;;8.28;72.51;100875.31;5034611;28;20399;-94
2021/03/25 02:23:53;;;;;;;12.68;1.67;;;;;;;8.29;72.82;100871.81;5034810;28;20376;-94
2021/03/25 02:26:27;;;;;;;6.53;1.88;;;;;;;8.21;73.66;100871.31;5034263;28;20075;-94
2021/03/25 02:29:00;;;;;;;10.88;2.30;;;;;;;8.31;73.36;100872.56;5034567;28;20063;-93
2021/03/25 02:31:30;;;;;;;6.18;1.50;;;;;;;8.32;73.57;100870.78;5034239;28;20087;-93
2021/03/25 02:34:00;;;;;;;6.68;1.60;;;;;;;8.30;73.37;100867.41;5034449;28;20098;-94
2021/03/25 02:36:57;;;;;;;5.03;1.45;;;;;;;8.31;72.68;100869.94;5034103;28;20432;-93
2021/03/25 02:39:33;;;;;;;7.18;1.50;;;;;;;8.23;72.92;100871.25;5032114;28;20549;-95
2021/03/25 02:42:02;;;;;;;7.35;1.42;;;;;;;8.23;73.36;100866.03;5034089;28;20032;-94
2021/03/25 02:44:33;;;;;;;5.25;1.35;;;;;;;8.20;72.86;100856.56;5034081;28;20025;-94
2021/03/25 02:47:04;;;;;;;15.63;2.58;;;;;;;8.15;72.38;100861.16;5033997;28;20056;-93
2021/03/25 02:49:35;;;;;;;9.40;2.97;;;;;;;8.12;71.91;100861.34;5033988;28;20061;-93
2021/03/25 02:52:16;;;;;;;10.13;1.67;;;;;;;8.29;72.08;100863.94;5034052;28;20030;-92
2021/03/25 02:54:43;;;;;;;4.00;1.40;;;;;;;8.34;71.38;100858.47;5033511;28;20112;-95
2021/03/25 02:57:16;;;;;;;11.68;1.48;;;;;;;7.71;72.79;100864.22;5033982;28;20033;-95
2021/03/25 02:59:46;;;;;;;12.38;1.88;;;;;;;7.78;73.14;100870.88;5034043;28;20021;-95
2021/03/25 03:02:22;;;;;;;4.68;1.45;;;;;;;7.75;73.30;100873.63;5033901;28;20081;-94
2021/03/25 03:04:52;;;;;;;6.13;1.42;;;;;;;7.74;73.12;100861.44;5033853;28;20060;-94
2021/03/25 03:07:23;;;;;;;6.18;1.90;;;;;;;7.71;73.12;100848.56;5033137;28;20477;-95
2021/03/25 03:09:53;;;;;;;7.75;1.38;;;;;;;7.85;72.49;100863.56;5033080;28;20032;-95
2021/03/25 03:12:32;;;;;;;7.82;1.55;;;;;;;7.77;72.42;100869.16;5033407;28;20025;-94
2021/03/25 03:15:07;;;;;;;7.07;1.48;;;;;;;7.63;73.04;100850.69;5033351;28;20061;-94
2021/03/25 03:17:45;;;;;;;7.30;1.70;;;;;;;7.70;72.86;100852.06;5033358;28;20042;-94
2021/03/25 03:20:20;;;;;;;7.00;1.55;;;;;;;7.79;72.99;100856.03;5033297;28;20388;-94
2021/03/25 03:22:46;;;;;;;10.80;1.45;;;;;;;7.53;73.81;100856.34;5033789;28;20044;-95
2021/03/25 03:25:16;;;;;;;11.98;1.73;;;;;;;7.53;74.53;100865.97;5057242;28;20013;-93
2021/03/25 03:27:46;;;;;;;6.90;1.60;;;;;;;7.75;74.46;100861.38;5058542;28;20036;-94
2021/03/25 03:30:19;;;;;;;6.65;1.52;;;;;;;7.83;74.62;100850.56;5058645;28;20056;-95
2021/03/25 03:32:56;;;;;;;8.95;1.98;;;;;;;7.88;74.36;100845.97;5048545;28;20025;-94
2021/03/25 03:35:41;;;;;;;6.53;2.33;;;;;;;8.16;74.28;100848.97;5034258;28;20036;-94
2021/03/25 03:38:15;;;;;;;8.07;1.45;;;;;;;8.39;74.04;100843.38;5034100;28;20025;-94
2021/03/25 03:40:47;;;;;;;13.15;1.95;;;;;;;8.64;72.98;100845.59;5015738;28;20033;-96
2021/03/25 03:43:14;;;;;;;10.38;2.70;;;;;;;8.60;73.98;100833.59;5035264;28;20080;-94
2021/03/25 03:45:48;;;;;;;16.27;2.83;;;;;;;8.95;73.35;100817.78;5033802;28;20056;-94
2021/03/25 03:48:22;;;;;;;7.28;1.58;;;;;;;8.64;73.41;100819.41;5033368;28;20100;-94
2021/03/25 03:50:51;;;;;;;8.65;1.63;;;;;;;8.66;73.30;100812.31;5033407;28;20025;-94
2021/03/25 03:53:17;;;;;;;9.55;1.70;;;;;;;8.88;72.89;100826.88;5034468;28;20025;-94
2021/03/25 03:55:43;;;;;;;8.43;1.88;;;;;;;8.79;72.22;100801.19;5034086;28;20365;-95
2021/03/25 03:58:11;;;;;;;4.57;1.80;;;;;;;8.80;71.44;100814.19;5013420;28;20030;-95
2021/03/25 04:00:42;;;;;;;9.52;2.10;;;;;;;8.00;75.10;100812.25;5013309;28;20045;-95
2021/03/25 04:03:18;;;;;;;4.85;1.58;;;;;;;8.19;74.57;100812.16;5013564;28;20037;-95
2021/03/25 04:05:51;;;;;;;7.50;1.50;;;;;;;8.22;73.39;100810.25;5013613;28;20065;-94
2021/03/25 04:08:29;;;;;;;13.98;2.10;;;;;;;8.09;73.95;100812.63;5016793;28;20043;-95
2021/03/25 04:11:33;;;;;;;9.20;1.73;;;;;;;8.52;72.77;100820.06;5032607;28;20108;-94
2021/03/25 04:14:16;;;;;;;6.65;1.45;;;;;;;8.35;73.56;100802.59;5031864;28;20079;-95
2021/03/25 04:16:43;;;;;;;7.57;1.50;;;;;;;8.65;72.25;100805.41;5031261;28;20381;-94
2021/03/25 04:19:35;;;;;;;6.28;1.40;;;;;;;8.56;72.40;100798.03;5032025;28;20116;-95
2021/03/25 04:22:08;;;;;;;7.65;2.33;;;;;;;8.64;71.81;100801.09;5030160;28;20038;-95
2021/03/25 04:24:41;;;;;;;13.90;2.40;;;;;;;8.33;73.20;100809.69;5032364;28;20033;-94
2021/03/25 04:27:13;;;;;;;6.75;2.17;;;;;;;8.40;73.39;100803.22;5032507;28;20029;-95
2021/03/25 04:29:47;;;;;;;11.43;2.33;;;;;;;8.42;73.49;100805.78;5032462;28;20025;-95
2021/03/25 04:32:12;;;;;;;6.28;1.75;;;;;;;8.41;74.42;100804.03;5032689;28;20025;-95
2021/03/25 04:34:38;;;;;;;8.40;1.90;;;;;;;8.66;72.50;100807.09;5032478;28;20084;-94
2021/03/25 04:37:07;;;;;;;13.85;2.17;;;;;;;8.62;72.75;100805.56;5032573;28;20109;-95
2021/03/25 04:39:33;;;;;;;6.60;1.70;;;;;;;8.66;72.56;100811.47;5032039;28;20072;-95
2021/03/25 04:42:01;;;;;;;7.18;1.77;;;;;;;8.69;72.56;100813.94;5032350;28;20045;-95
2021/03/25 04:44:45;;;;;;;9.07;2.15;;;;;;;8.64;73.58;100816.78;5032607;28;20032;-95
2021/03/25 04:47:21;;;;;;;12.63;2.13;;;;;;;9.06;72.11;100815.41;5032487;28;20029;-95
2021/03/25 04:50:05;;;;;;;9.82;1.88;;;;;;;8.95;74.15;100816.94;5032681;28;20026;-96
2021/03/25 04:52:33;;;;;;;15.30;1.90;;;;;;;9.13;73.04;100816.75;5032501;28;20483;-95
2021/03/25 04:55:17;;;;;;;9.57;1.73;;;;;;;9.24;73.48;100802.19;5031765;28;20029;-94
2021/03/25 04:57:57;;;;;;;11.05;2.42;;;;;;;9.27;73.08;100813.34;5032182;28;20026;-95
2021/03/25 05:00:30;;;;;;;6.55;2.00;;;;;;;9.27;73.33;100810.75;5031958;28;20025;-95
2021/03/25 05:02:55;;;;;;;10.00;2.00;;;;;;;9.25;73.54;100809.16;5031793;28;20026;-95
2021/03/25 05:05:25;;;;;;;11.90;2.33;;;;;;;9.32;73.61;100805.22;5033193;28;20064;-94
2021/03/25 05:07:57;;;;;;;8.23;1.75;;;;;;;9.33;73.61;100806.94;5032171;28;20025;-96
2021/03/25 05:10:41;;;;;;;7.30;2.17;;;;;;;9.44;72.70;100809.81;5032002;28;20041;-95
2021/03/25 05:13:19;;;;;;;7.30;1.38;;;;;;;9.57;72.73;100804.69;5032407;28;20022;-96
2021/03/25 05:15:44;;;;;;;8.77;2.55;;;;;;;9.36;73.68;100812.00;5032498;28;20021;-95
2021/03/25 05:18:21;;;;;;;10.20;1.83;;;;;;;9.74;72.04;100811.59;5032337;28;20413;-94
2021/03/25 05:21:01;;;;;;;9.02;1.67;;;;;;;9.82;72.26;100811.16;5032249;28;20032;-95
2021/03/25 05:23:36;;;;;;;6.45;1.33;;;;;;;9.94;70.70;100813.06;5032127;28;20123;-96
2021/03/25 05:26:12;;;;;;;5.93;1.35;;;;;;;9.99;69.83;100821.50;5031648;28;20037;-94
2021/03/25 05:28:43;;;;;;;12.10;2.08;;;;;;;10.34;68.43;100825.59;5053184;23;20453;-91
2021/03/25 05:31:12;;;;;;;8.20;1.92;;;;;;;10.35;68.59;100806.28;5030449;28;20024;-91
2021/03/25 05:33:39;;;;;;;11.70;2.05;;;;;;;10.23;68.83;100807.84;5031684;28;20155;-91
2021/03/25 05:36:08;;;;;;;9.15;1.80;;;;;;;10.30;68.23;100814.44;5031698;28;20065;-91
2021/03/25 05:38:34;;;;;;;7.57;1.75;;;;;;;10.27;69.14;100812.00;5029774;28;20129;-90
2021/03/25 05:41:22;;;;;;;9.50;1.67;;;;;;;10.40;68.33;100809.50;5031599;28;20152;-91
2021/03/25 05:44:11;;;;;;;10.43;1.83;;;;;;;10.35;68.92;100811.53;5002729;28;20042;-91
2021/03/25 05:47:04;;;;;;;8.07;1.60;;;;;;;10.44;68.32;100816.25;5030036;28;20369;-91
2021/03/25 05:49:42;;;;;;;9.27;2.03;;;;;;;10.23;68.69;100819.19;5030243;28;20029;-91
2021/03/25 05:52:33;;;;;;;7.85;1.75;;;;;;;10.13;70.02;100813.66;5029877;28;20551;-91
2021/03/25 05:55:07;;;;;;;9.25;1.85;;;;;;;9.81;71.50;100818.16;5031433;28;20530;-90
2021/03/25 05:57:39;;;;;;;8.55;2.15;;;;;;;9.70;71.95;100813.53;5030170;28;20068;-91
2021/03/25 06:00:07;;;;;;;6.70;2.45;;;;;;;10.03;71.31;100814.28;5030094;28;20472;-91
2021/03/25 06:02:36;;;;;;;7.32;1.67;;;;;;;9.92;72.03;100814.91;5031230;28;20104;-90
2021/03/25 06:05:03;;;;;;;6.75;1.15;;;;;;;9.87;72.61;100803.84;5029910;28;20047;-91
2021/03/25 06:07:48;;;;;;;8.70;1.95;;;;;;;10.06;71.92;100806.22;5029778;28;20550;-91
2021/03/25 06:10:45;;;;;;;10.63;1.67;;;;;;;9.87;73.17;100817.81;5031533;28;20030;-91
2021/03/25 06:13:13;;;;;;;7.00;1.88;;;;;;;9.88;73.84;100818.66;5031040;28;20026;-91
2021/03/25 06:16:23;;;;;;;8.63;2.65;;;;;;;9.85;72.97;100814.44;5030004;28;20095;-91
2021/03/25 06:19:26;;;;;;;10.52;1.90;;;;;;;9.88;73.63;100814.25;5007109;28;20033;-91
2021/03/25 06:22:11;;;;;;;6.80;2.05;;;;;;;9.92;73.01;100814.91;5026503;28;20052;-91
2021/03/25 06:24:58;;;;;;;14.43;2.97;;;;;;;9.75;74.80;100813.28;5011617;28;20495;-91
2021/03/25 07:29:35;;;;;;;11.80;2.00;;;;;;;12.00;67.12;100828.22;4973833;28;20043;-86
2021/03/25 07:32:07;;;;;;;9.85;2.55;;;;;;;12.01;67.99;100830.78;4974985;28;20034;-87
2021/03/25 07:34:39;;;;;;;9.45;1.92;;;;;;;11.79;69.90;100833.97;4975104;28;20041;-86
2021/03/25 07:37:07;;;;;;;10.13;2.67;;;;;;;11.74;69.81;100836.03;4974501;28;20034;-86
2021/03/25 07:39:48;;;;;;;9.90;2.13;;;;;;;11.57;71.15;100834.53;4994573;28;20042;-86
2021/03/25 07:42:26;;;;;;;13.33;1.90;;;;;;;11.59;71.71;100832.66;4989135;28;20178;-88
2021/03/25 07:44:52;;;;;;;6.55;2.58;;;;;;;11.56;72.42;100824.94;4991024;28;20279;-88
2021/03/25 07:47:30;;;;;;;7.57;2.42;;;;;;;11.62;73.42;100826.34;4993894;28;20049;-88
2021/03/25 07:50:18;;;;;;;10.40;2.10;;;;;;;12.50;71.40;100819.53;4993765;28;20047;-88
2021/03/25 07:52:43;;;;;;;12.27;1.92;;;;;;;12.83;70.51;100810.19;4993534;28;20034;-91
2021/03/25 07:55:30;;;;;;;8.65;1.90;;;;;;;13.08;68.34;100819.00;4997523;28;20030;-90
2021/03/25 07:57:57;;;;;;;9.98;1.58;;;;;;;13.08;68.68;100819.81;4991513;28;20030;-90
2021/03/25 08:00:32;;;;;;;7.28;1.90;;;;;;;13.13;67.52;100811.59;4985861;28;20085;-91
2021/03/25 08:03:16;;;;;;;8.27;1.92;;;;;;;13.13;67.94;100819.50;4991394;28;20030;-89
2021/03/25 08:05:42;;;;;;;7.38;1.70;;;;;;;12.93;68.72;100820.06;4993340;28;20033;-89
2021/03/25 08:08:20;;;;;;;14.23;2.58;;;;;;;13.01;68.58;100813.31;4989617;28;20065;-88
2021/03/25 08:10:49;;;;;;;9.82;2.97;;;;;;;13.17;68.01;100822.75;4986824;28;20029;-87
2021/03/25 08:13:25;;;;;;;9.60;1.95;;;;;;;13.26;68.24;100811.53;4987608;28;20537;-89
2021/03/25 08:16:08;;;;;;;6.43;1.95;;;;;;;13.34;68.09;100814.47;4992142;28;20071;-90
2021/03/25 08:18:39;;;;;;;7.70;1.98;;;;;;;13.19;68.61;100810.28;4990593;28;20114;-89
2021/03/25 08:21:39;;;;;;;10.73;2.17;;;;;;;13.22;68.92;100810.06;4994502;28;20025;-91
2021/03/25 08:24:42;;;;;;;9.15;2.05;;;;;;;13.31;69.92;100820.00;4993039;28;20022;-88
2021/03/25 08:27:13;;;;;;;;;;;;;;;13.23;70.41;100822.28;4993421;28;20039;-90
2021/03/25 08:29:50;;;;;;;9.75;1.95;;;;;;;13.24;69.58;100822.19;4975264;28;19918;-90
2021/03/25 08:32:45;;;;;;;7.15;1.77;;;;;;;13.73;68.37;100816.94;4990101;28;20030;-89
2021/03/25 08:38:28;;;;;;;15.43;2.17;;;;;;;13.82;70.31;100803.91;5103802;27;20393;-89
2021/03/25 08:41:00;;;;;;;6.78;1.77;;;;;;;14.24;67.57;100814.78;5075576;28;20394;-88
2021/03/25 08:43:38;;;;;;;9.02;1.80;;;;;;;14.57;65.94;100821.06;5084459;28;20548;-89
2021/03/25 08:46:17;;;;;;;5.72;1.70;;;;;;;14.86;65.41;100815.31;5075358;28;20489;-89
2021/03/25 08:49:01;;;;;;;11.73;2.33;;;;;;;14.53;68.16;100809.03;5083525;28;20025;-90
2021/03/25 08:51:31;;;;;;;12.30;1.58;;;;;;;15.71;63.44;100811.94;5078906;28;20029;-90
2021/03/25 08:54:01;;;;;;;7.93;2.15;;;;;;;15.89;62.69;100814.88;5076842;28;20608;-89
2021/03/25 08:56:41;;;;;;;10.63;2.30;;;;;;;16.75;58.91;100804.88;5083498;28;20059;-90
2021/03/25 08:59:27;;;;;;;7.75;1.70;;;;;;;16.44;57.69;100809.34;5077997;28;20016;-90
2021/03/25 09:02:17;;;;;;;10.20;2.35;;;;;;;16.59;57.85;100802.72;5076912;28;20100;-90
2021/03/25 09:05:05;;;;;;;13.40;1.60;;;;;;;16.86;57.16;100814.56;5075717;28;20078;-90
2021/03/25 09:07:33;;;;;;;7.47;1.80;;;;;;;16.70;58.02;100814.19;5072384;28;20152;-90
2021/03/25 09:10:04;;;;;;;14.25;2.10;;;;;;;16.47;59.74;100814.41;5077258;28;20107;-89
2021/03/25 09:12:31;;;;;;;11.90;2.83;;;;;;;16.23;57.64;100810.22;5089179;28;20498;-91
2021/03/25 09:14:59;;;;;;;7.63;1.80;;;;;;;16.73;56.14;100813.94;5085182;28;20524;-91
2021/03/25 09:17:33;;;;;;;13.68;2.05;;;;;;;17.36;56.41;100801.25;5085056;28;20032;-90
2021/03/25 09:19:59;;;;;;;7.15;1.65;;;;;;;18.11;53.98;100804.16;5082940;28;20441;-90
2021/03/25 09:22:36;;;;;;;8.40;2.17;;;;;;;18.46;51.12;100804.47;5082398;28;20028;-91
2021/03/25 09:25:20;;;;;;;11.35;2.20;;;;;;;17.66;53.94;100810.06;5088010;28;20025;-91
2021/03/25 09:28:05;;;;;;;12.38;2.10;;;;;;;17.68;55.66;100805.44;5091292;23;20143;-90
2021/03/25 09:30:54;;;;;;;6.45;1.40;;;;;;;18.26;53.64;100798.38;5010056;28;20033;-90
2021/03/25 09:33:41;;;;;;;8.07;1.48;;;;;;;17.40;54.36;100800.00;5010561;28;20377;-90
2021/03/25 09:36:18;;;;;;;8.85;1.48;;;;;;;16.14;56.70;100808.34;5009792;28;20030;-89
2021/03/25 09:38:51;;;;;;;10.48;2.58;;;;;;;15.76;59.91;100809.78;5022339;28;20476;-89
2021/03/25 09:41:36;;;;;;;9.98;1.63;;;;;;;16.48;58.39;100786.91;5025292;28;20018;-89
2021/03/25 09:44:01;;;;;;;4.93;1.17;;;;;;;16.42;57.23;100798.03;5025145;28;20089;-90
2021/03/25 09:46:47;;;;;;;7.40;2.58;;;;;;;16.10;57.11;100793.69;5033618;28;20129;-90
2021/03/25 09:49:26;;;;;;;12.07;2.00;;;;;;;16.63;57.29;100787.38;5014138;28;20036;-90
2021/03/25 09:52:06;;;;;;;6.90;1.58;;;;;;;17.90;53.98;100793.72;5008005;28;20049;-90
2021/03/25 09:54:34;;;;;;;10.23;1.45;;;;;;;18.09;52.33;100787.53;5010064;28;20053;-89
2021/03/25 09:57:28;;;;;;;8.07;1.50;;;;;;;20.08;48.05;100787.66;5025496;28;20055;-90
2021/03/25 10:00:12;;;;;;;7.53;1.13;;;;;;;19.76;47.42;100783.75;5019226;28;20021;-90
2021/03/25 10:02:37;;;;;;;8.68;1.70;;;;;;;18.63;50.09;100788.56;5010147;28;20038;-89
2021/03/25 10:05:24;;;;;;;8.13;1.52;;;;;;;18.76;48.28;100788.25;5015075;28;20033;-90
2021/03/25 10:07:53;;;;;;;8.77;1.95;;;;;;;18.50;49.49;100779.25;5019778;28;20060;-89
2021/03/25 10:10:42;;;;;;;5.97;1.23;;;;;;;18.10;49.81;100783.88;5016268;28;20038;-90
2021/03/25 10:13:07;;;;;;;6.65;1.35;;;;;;;18.86;49.41;100780.25;5007690;28;20754;-89
2021/03/25 10:15:34;;;;;;;9.90;1.58;;;;;;;19.60;47.04;100778.28;5012968;28;20029;-89
2021/03/25 10:18:00;;;;;;;8.55;1.90;;;;;;;19.06;47.94;100782.78;5015811;28;20029;-89
2021/03/25 10:20:44;;;;;;;11.73;1.45;;;;;;;18.94;46.02;100776.84;5022847;28;20026;-89
2021/03/25 10:23:14;;;;;;;5.93;1.33;;;;;;;19.08;46.11;100770.16;5012955;28;20026;-87
2021/03/25 10:25:39;;;;;;;5.75;1.38;;;;;;;19.25;46.45;100757.84;5014267;28;20068;-86
2021/03/25 10:28:12;;;;;;;7.85;1.30;;;;;;;19.38;44.94;100782.25;5012481;28;20034;-89
2021/03/25 10:30:37;;;;;;;5.75;1.20;;;;;;;20.54;42.33;100772.25;5012793;28;20057;-89
2021/03/25 10:33:06;;;;;;;6.07;1.65;;;;;;;21.78;39.90;100779.53;5014360;28;20206;-90
2021/03/25 10:35:51;;;;;;;7.25;1.67;;;;;;;20.70;40.97;100781.34;5020043;28;20429;-89
2021/03/25 10:38:21;;;;;;;10.63;1.95;;;;;;;20.78;40.78;100774.19;5013453;28;20041;-89
2021/03/25 10:40:48;;;;;;;9.88;1.67;;;;;;;21.47;39.82;100763.34;5013540;28;20030;-89
2021/03/25 10:43:24;;;;;;;6.20;1.10;;;;;;;20.88;40.60;100763.38;5014969;28;20209;-89
2021/03/25 10:45:51;;;;;;;11.90;1.55;;;;;;;20.50;41.94;100760.22;5016030;28;20034;-89
2021/03/25 10:48:29;;;;;;;6.43;1.48;;;;;;;20.13;42.64;100758.69;5011684;28;20026;-90
2021/03/25 10:51:11;;;;;;;8.30;1.95;;;;;;;20.63;40.28;100748.28;5011553;28;20030;-89
2021/03/25 10:53:40;;;;;;;6.75;1.60;;;;;;;19.47;44.70;100759.19;5010840;28;20496;-90
2021/03/25 10:56:07;;;;;;;9.68;1.45;;;;;;;19.20;44.39;100760.97;5015736;28;20040;-90
2021/03/25 10:58:39;;;;;;;8.95;1.33;;;;;;;18.21;46.54;100746.50;5032088;28;20080;-90
2021/03/25 11:01:21;;;;;;;9.30;2.17;;;;;;;18.68;45.62;100758.03;5011302;28;20049;-90
2021/03/25 11:03:49;;;;;;;13.00;2.00;;;;;;;18.71;46.21;100757.75;5010006;28;20068;-89
2021/03/25 11:06:25;;;;;;;5.50;1.40;;;;;;;18.54;46.75;100751.38;5012237;28;20025;-89
2021/03/25 11:08:52;;;;;;;7.82;1.50;;;;;;;18.20;47.35;100750.13;4992636;28;20031;-89
2021/03/25 11:11:24;;;;;;;8.07;2.33;;;;;;;17.56;48.14;100745.50;5009415;28;20109;-90
2021/03/25 11:14:01;;;;;;;8.68;1.35;;;;;;;17.87;46.94;100740.03;5010853;28;20053;-89
2021/03/25 11:16:27;;;;;;;8.40;1.50;;;;;;;17.25;49.83;100741.16;5027595;28;20052;-92
2021/03/25 11:19:01;;;;;;;5.75;1.55;;;;;;;17.72;48.72;100729.00;5012496;28;20059;-92
2021/03/25 11:21:32;;;;;;;10.48;1.35;;;;;;;17.81;48.00;100734.28;5012791;28;20518;-94
2021/03/25 11:24:07;;;;;;;6.40;1.33;;;;;;;19.90;43.89;100721.06;4993779;28;20041;-91
2021/03/25 11:26:34;;;;;;;6.97;1.23;;;;;;;20.43;42.61;100719.19;5016826;28;20120;-93
2021/03/25 11:29:01;;;;;;;11.88;2.30;;;;;;;20.87;42.47;100710.97;5019488;28;20026;-93
2021/03/25 11:31:29;;;;;;;9.00;1.42;;;;;;;21.31;41.65;100704.53;5012667;28;20118;-92
2021/03/25 11:33:55;;;;;;;5.40;1.38;;;;;;;21.54;41.06;100707.38;5011595;28;20495;-92
2021/03/25 11:36:43;;;;;;;4.25;1.08;;;;;;;21.18;43.50;100705.03;5011524;28;20034;-92
2021/03/25 11:39:30;;;;;;;4.28;1.23;;;;;;;21.75;38.67;100707.69;5008304;28;20396;-92
2021/03/25 11:42:00;;;;;;;6.82;1.33;;;;;;;20.80;42.23;100707.31;5013308;28;20140;-92
2021/03/25 11:44:48;;;;;;;8.77;2.13;;;;;;;20.62;43.14;100703.91;5009368;28;20026;-91
2021/03/25 11:47:33;;;;;;;8.23;1.80;;;;;;;21.20;42.49;100695.00;5008659;28;20546;-92
2021/03/25 11:50:00;;;;;;;6.75;1.77;;;;;;;20.73;42.33;100703.63;5006778;28;20030;-92
2021/03/25 11:52:25;;;;;;;6.65;1.80;;;;;;;20.44;42.87;100685.34;5013759;28;20469;-92
2021/03/25 11:55:03;;;;;;;7.78;1.75;;;;;;;20.86;42.07;100685.31;5012530;28;20072;-93
2021/03/25 11:57:33;;;;;;;13.82;1.42;;;;;;;20.40;42.78;100685.66;5014667;28;20037;-93
2021/03/25 12:00:10;;;;;;;7.35;2.05;;;;;;;20.32;43.68;100682.13;5003148;28;20030;-93
2021/03/25 12:02:37;;;;;;;7.22;1.60;;;;;;;20.14;40.63;100677.75;4998452;28;20030;-93
2021/03/25 12:05:21;;;;;;;6.60;1.23;;;;;;;19.41;43.06;100676.28;5013569;28;20077;-93
2021/03/25 12:07:46;;;;;;;7.00;1.90;;;;;;;19.25;44.20;100675.31;5030628;28;20026;-93
2021/03/25 12:10:15;;;;;;;6.95;1.02;;;;;;;19.69;43.83;100689.47;5033219;28;20032;-93
2021/03/25 12:12:44;;;;;;;20.23;9.82;;;;;;;20.80;43.85;100685.97;5033712;28;20079;-92
2021/03/25 12:15:10;;;;;;;16.63;5.25;;;;;;;19.52;46.24;100680.50;5019767;28;20068;-92
2021/03/25 12:17:41;;;;;;;10.35;6.72;;;;;;;18.83;48.43;100706.03;5007737;28;20113;-92
2021/03/25 12:20:09;;;;;;;17.15;3.45;;;;;;;18.62;48.88;100690.31;5013080;28;20032;-92
2021/03/25 12:22:36;;;;;;;5.07;1.52;;;;;;;17.43;53.27;100682.06;5013225;28;20030;-93
2021/03/25 12:25:03;;;;;;;7.30;1.33;;;;;;;17.01;54.92;100682.38;5014648;28;20147;-93
2021/03/25 12:27:29;;;;;;;8.23;1.55;;;;;;;17.22;54.44;100692.88;5029404;28;20097;-93
2021/03/25 12:29:56;;;;;;;2.97;0.88;;;;;;;16.38;56.75;100682.69;5020696;28;20034;-92
2021/03/25 12:32:28;;;;;;;8.27;0.95;;;;;;;16.06;58.67;100684.50;5018324;28;20096;-92
2021/03/25 12:34:53;;;;;;;;;;;;;;;16.40;57.67;100686.03;5011714;28;20423;-91
2021/03/25 12:37:23;;;;;;;7.07;0.98;;;;;;;16.07;58.79;100685.34;5010197;28;19925;-91
2021/03/25 12:39:50;;;;;;;6.78;1.15;;;;;;;15.73;59.73;100666.22;5011868;28;20034;-92
2021/03/25 12:42:16;;;;;;;6.13;0.98;;;;;;;15.56;60.48;100676.44;5010197;28;20029;-91
2021/03/25 12:44:41;;;;;;;3.35;0.88;;;;;;;16.09;59.36;100667.50;5031212;28;20504;-89
2021/03/25 12:47:08;;;;;;;5.78;1.15;;;;;;;16.56;58.19;100664.31;5025654;28;20033;-91
2021/03/25 12:49:33;;;;;;;8.13;1.75;;;;;;;17.75;55.35;100660.50;5011784;28;20119;-92
2021/03/25 12:51:58;;;;;;;5.18;1.88;;;;;;;17.90;54.34;100647.59;5010699;28;20069;-91
2021/03/25 12:54:24;;;;;;;8.02;1.75;;;;;;;17.60;53.32;100656.63;5011720;28;20076;-92
2021/03/25 12:56:56;;;;;;;6.55;1.90;;;;;;;17.39;53.55;100652.31;5011591;28;20511;-91
2021/03/25 12:59:22;;;;;;;6.25;1.55;;;;;;;18.46;50.94;100648.44;5011684;28;20034;-90
2021/03/25 13:01:47;;;;;;;9.95;2.13;;;;;;;18.17;51.74;100652.09;5010378;28;20032;-90